Search for airport 
image banner adimage banner adimage banner ad
image banner ad

P17 - Greater Breezewood Rgnl

Located in Breezewood, United States

ICAO - P17, IATA -

Data provided by Airmate  

General information

Coordinates: N39°52'27" W78°17'52"
Elevation is 1345 feet MSL.
 
View others Airports in Pennsylvania

Operational data

Special qualification required
Current time UTC:
Current local time:
Weather at : KHMZ - Bedford County ( 30 km )
METAR: KHMZ 071355Z AUTO 00000KT 10SM OVC060 10/03 A2987 RMK AO2 T01000034
View NOTAMs / SUP AIP / TFR affecting this airport [VIEW]
Communications frequencies: [VIEW]

Runways:

RWY identifierQFULength (ft)Width (ft)SurfaceLDA (ft)
0116°3073100GRASS
19196°3073100GRASS

Airport contact information

Address: Breezewood United States

Satellite view of P17